sensor_id;sensor_type;location;lat;lon;timestamp;P1;durP1;ratioP1;P2;durP2;ratioP2
5209;SDS011;2624;48.048;11.706;2022-11-02T00:04:26;5.17;;;1.50;;
5209;SDS011;2624;48.048;11.706;2022-11-02T00:09:28;3.17;;;1.47;;
5209;SDS011;2624;48.048;11.706;2022-11-02T00:14:31;2.90;;;1.30;;
5209;SDS011;2624;48.048;11.706;2022-11-02T00:19:33;5.63;;;1.57;;
5209;SDS011;2624;48.048;11.706;2022-11-02T00:24:35;1.83;;;1.73;;
5209;SDS011;2624;48.048;11.706;2022-11-02T00:29:38;1.33;;;1.23;;
5209;SDS011;2624;48.048;11.706;2022-11-02T00:34:40;1.63;;;1.23;;
5209;SDS011;2624;48.048;11.706;2022-11-02T00:39:42;3.80;;;1.40;;
5209;SDS011;2624;48.048;11.706;2022-11-02T00:44:45;1.43;;;1.33;;
5209;SDS011;2624;48.048;11.706;2022-11-02T00:49:47;2.93;;;1.27;;
5209;SDS011;2624;48.048;11.706;2022-11-02T00:54:48;1.33;;;1.00;;
5209;SDS011;2624;48.048;11.706;2022-11-02T00:59:52;2.60;;;1.20;;
5209;SDS011;2624;48.048;11.706;2022-11-02T01:04:53;2.90;;;1.30;;
5209;SDS011;2624;48.048;11.706;2022-11-02T01:09:55;1.93;;;1.00;;
5209;SDS011;2624;48.048;11.706;2022-11-02T01:14:58;1.30;;;1.23;;
5209;SDS011;2624;48.048;11.706;2022-11-02T01:20:01;0.97;;;0.97;;
5209;SDS011;2624;48.048;11.706;2022-11-02T01:25:04;5.10;;;1.20;;
5209;SDS011;2624;48.048;11.706;2022-11-02T01:30:08;1.90;;;1.00;;
5209;SDS011;2624;48.048;11.706;2022-11-02T01:35:11;1.30;;;1.30;;
5209;SDS011;2624;48.048;11.706;2022-11-02T01:40:13;2.17;;;1.30;;
5209;SDS011;2624;48.048;11.706;2022-11-02T01:45:16;2.77;;;1.13;;
5209;SDS011;2624;48.048;11.706;2022-11-02T01:50:19;0.97;;;0.97;;
5209;SDS011;2624;48.048;11.706;2022-11-02T01:55:24;1.20;;;1.10;;
5209;SDS011;2624;48.048;11.706;2022-11-02T02:00:31;1.00;;;1.00;;
5209;SDS011;2624;48.048;11.706;2022-11-02T02:05:33;4.20;;;1.17;;
5209;SDS011;2624;48.048;11.706;2022-11-02T02:10:40;3.73;;;1.10;;
5209;SDS011;2624;48.048;11.706;2022-11-02T02:15:45;7.83;;;1.40;;
5209;SDS011;2624;48.048;11.706;2022-11-02T02:20:55;2.40;;;1.13;;
5209;SDS011;2624;48.048;11.706;2022-11-02T02:26:14;2.50;;;1.17;;
5209;SDS011;2624;48.048;11.706;2022-11-02T02:31:45;1.33;;;1.20;;
5209;SDS011;2624;48.048;11.706;2022-11-02T02:36:56;1.73;;;0.90;;
5209;SDS011;2624;48.048;11.706;2022-11-02T02:42:04;1.83;;;1.17;;
5209;SDS011;2624;48.048;11.706;2022-11-02T02:47:13;4.47;;;1.37;;
5209;SDS011;2624;48.048;11.706;2022-11-02T02:52:20;2.70;;;1.23;;
5209;SDS011;2624;48.048;11.706;2022-11-02T02:57:27;1.33;;;0.97;;
5209;SDS011;2624;48.048;11.706;2022-11-02T03:02:34;1.33;;;1.20;;
5209;SDS011;2624;48.048;11.706;2022-11-02T03:07:39;1.50;;;1.40;;
5209;SDS011;2624;48.048;11.706;2022-11-02T03:12:43;1.87;;;1.20;;
5209;SDS011;2624;48.048;11.706;2022-11-02T03:17:52;1.00;;;1.00;;
5209;SDS011;2624;48.048;11.706;2022-11-02T03:23:03;0.90;;;0.90;;
5209;SDS011;2624;48.048;11.706;2022-11-02T03:28:13;0.70;;;0.70;;
5209;SDS011;2624;48.048;11.706;2022-11-02T03:33:21;1.10;;;1.00;;
5209;SDS011;2624;48.048;11.706;2022-11-02T03:38:28;1.93;;;1.30;;
5209;SDS011;2624;48.048;11.706;2022-11-02T03:43:36;2.30;;;1.73;;
5209;SDS011;2624;48.048;11.706;2022-11-02T03:48:42;1.70;;;1.50;;
5209;SDS011;2624;48.048;11.706;2022-11-02T03:53:48;4.73;;;1.03;;
5209;SDS011;2624;48.048;11.706;2022-11-02T03:58:55;1.27;;;1.27;;
5209;SDS011;2624;48.048;11.706;2022-11-02T04:03:58;2.77;;;1.33;;
5209;SDS011;2624;48.048;11.706;2022-11-02T04:09:00;1.30;;;1.20;;
5209;SDS011;2624;48.048;11.706;2022-11-02T04:14:02;9.57;;;1.20;;
5209;SDS011;2624;48.048;11.706;2022-11-02T04:19:23;2.50;;;2.17;;
5209;SDS011;2624;48.048;11.706;2022-11-02T04:24:28;2.90;;;1.23;;
5209;SDS011;2624;48.048;11.706;2022-11-02T04:29:47;1.13;;;1.13;;
5209;SDS011;2624;48.048;11.706;2022-11-02T04:34:50;1.20;;;1.20;;
5209;SDS011;2624;48.048;11.706;2022-11-02T04:39:52;4.83;;;1.80;;
5209;SDS011;2624;48.048;11.706;2022-11-02T04:44:54;1.90;;;1.50;;
5209;SDS011;2624;48.048;11.706;2022-11-02T04:49:57;4.50;;;1.70;;
5209;SDS011;2624;48.048;11.706;2022-11-02T04:54:59;1.70;;;1.20;;
5209;SDS011;2624;48.048;11.706;2022-11-02T05:00:01;6.80;;;1.80;;
5209;SDS011;2624;48.048;11.706;2022-11-02T05:05:08;2.30;;;1.87;;
5209;SDS011;2624;48.048;11.706;2022-11-02T05:10:11;3.03;;;2.00;;
5209;SDS011;2624;48.048;11.706;2022-11-02T05:15:13;3.10;;;1.90;;
5209;SDS011;2624;48.048;11.706;2022-11-02T05:20:16;1.77;;;1.67;;
5209;SDS011;2624;48.048;11.706;2022-11-02T05:25:18;2.93;;;1.20;;
5209;SDS011;2624;48.048;11.706;2022-11-02T05:30:20;1.37;;;1.20;;
5209;SDS011;2624;48.048;11.706;2022-11-02T05:35:23;10.67;;;1.40;;
5209;SDS011;2624;48.048;11.706;2022-11-02T05:40:25;3.90;;;1.87;;
5209;SDS011;2624;48.048;11.706;2022-11-02T05:45:27;6.60;;;2.00;;
5209;SDS011;2624;48.048;11.706;2022-11-02T05:50:30;1.27;;;1.17;;
5209;SDS011;2624;48.048;11.706;2022-11-02T05:55:32;1.47;;;1.23;;
5209;SDS011;2624;48.048;11.706;2022-11-02T06:00:34;1.60;;;1.50;;
5209;SDS011;2624;48.048;11.706;2022-11-02T06:05:37;7.03;;;2.10;;
5209;SDS011;2624;48.048;11.706;2022-11-02T06:10:39;2.03;;;1.50;;
5209;SDS011;2624;48.048;11.706;2022-11-02T06:15:42;6.13;;;1.80;;
5209;SDS011;2624;48.048;11.706;2022-11-02T06:20:45;2.53;;;1.80;;
5209;SDS011;2624;48.048;11.706;2022-11-02T06:25:50;4.10;;;2.10;;
5209;SDS011;2624;48.048;11.706;2022-11-02T06:30:53;11.40;;;1.70;;
5209;SDS011;2624;48.048;11.706;2022-11-02T06:35:56;1.37;;;1.20;;
5209;SDS011;2624;48.048;11.706;2022-11-02T06:40:58;4.30;;;1.63;;
5209;SDS011;2624;48.048;11.706;2022-11-02T06:46:03;1.87;;;1.60;;
5209;SDS011;2624;48.048;11.706;2022-11-02T06:51:07;1.60;;;1.50;;
5209;SDS011;2624;48.048;11.706;2022-11-02T06:56:08;2.23;;;1.87;;
5209;SDS011;2624;48.048;11.706;2022-11-02T07:01:11;1.93;;;1.83;;
5209;SDS011;2624;48.048;11.706;2022-11-02T07:06:15;3.03;;;1.60;;
5209;SDS011;2624;48.048;11.706;2022-11-02T07:11:17;1.50;;;1.40;;
5209;SDS011;2624;48.048;11.706;2022-11-02T07:16:19;6.77;;;2.00;;
5209;SDS011;2624;48.048;11.706;2022-11-02T07:21:22;1.93;;;1.83;;
5209;SDS011;2624;48.048;11.706;2022-11-02T07:26:24;6.40;;;1.67;;
5209;SDS011;2624;48.048;11.706;2022-11-02T07:31:26;2.93;;;1.97;;
5209;SDS011;2624;48.048;11.706;2022-11-02T07:36:29;1.80;;;1.60;;
5209;SDS011;2624;48.048;11.706;2022-11-02T07:41:31;5.70;;;2.43;;
5209;SDS011;2624;48.048;11.706;2022-11-02T07:46:33;2.00;;;1.80;;
5209;SDS011;2624;48.048;11.706;2022-11-02T07:51:36;2.43;;;1.93;;
5209;SDS011;2624;48.048;11.706;2022-11-02T07:56:38;7.00;;;2.10;;
5209;SDS011;2624;48.048;11.706;2022-11-02T08:01:40;3.33;;;2.10;;
5209;SDS011;2624;48.048;11.706;2022-11-02T08:06:43;2.50;;;1.90;;
5209;SDS011;2624;48.048;11.706;2022-11-02T08:11:45;6.47;;;2.20;;
5209;SDS011;2624;48.048;11.706;2022-11-02T08:16:49;3.17;;;2.30;;
5209;SDS011;2624;48.048;11.706;2022-11-02T08:21:53;1.33;;;1.23;;
5209;SDS011;2624;48.048;11.706;2022-11-02T08:26:55;5.00;;;1.97;;
5209;SDS011;2624;48.048;11.706;2022-11-02T08:31:57;2.10;;;1.90;;
5209;SDS011;2624;48.048;11.706;2022-11-02T08:37:00;2.50;;;1.40;;
5209;SDS011;2624;48.048;11.706;2022-11-02T08:42:02;10.50;;;1.70;;
5209;SDS011;2624;48.048;11.706;2022-11-02T08:47:04;1.60;;;1.50;;
5209;SDS011;2624;48.048;11.706;2022-11-02T08:52:07;6.80;;;1.60;;
5209;SDS011;2624;48.048;11.706;2022-11-02T08:57:09;2.10;;;1.67;;
5209;SDS011;2624;48.048;11.706;2022-11-02T09:02:11;5.50;;;2.40;;
5209;SDS011;2624;48.048;11.706;2022-11-02T09:07:14;3.33;;;1.93;;
5209;SDS011;2624;48.048;11.706;2022-11-02T09:12:16;4.93;;;2.30;;
5209;SDS011;2624;48.048;11.706;2022-11-02T09:17:17;3.17;;;1.93;;
5209;SDS011;2624;48.048;11.706;2022-11-02T09:22:21;1.87;;;1.07;;
5209;SDS011;2624;48.048;11.706;2022-11-02T09:27:22;1.20;;;1.20;;
5209;SDS011;2624;48.048;11.706;2022-11-02T09:32:24;1.60;;;0.97;;
5209;SDS011;2624;48.048;11.706;2022-11-02T09:37:27;0.90;;;0.90;;
5209;SDS011;2624;48.048;11.706;2022-11-02T09:42:31;0.90;;;0.90;;
5209;SDS011;2624;48.048;11.706;2022-11-02T09:47:42;1.37;;;1.27;;
5209;SDS011;2624;48.048;11.706;2022-11-02T09:52:49;1.27;;;1.17;;
5209;SDS011;2624;48.048;11.706;2022-11-02T09:57:57;0.80;;;0.80;;
5209;SDS011;2624;48.048;11.706;2022-11-02T10:03:05;1.63;;;1.27;;
5209;SDS011;2624;48.048;11.706;2022-11-02T10:08:24;1.30;;;1.20;;
5209;SDS011;2624;48.048;11.706;2022-11-02T10:13:35;1.17;;;1.03;;
5209;SDS011;2624;48.048;11.706;2022-11-02T10:18:42;13.13;;;1.80;;
5209;SDS011;2624;48.048;11.706;2022-11-02T10:23:50;7.30;;;1.83;;
5209;SDS011;2624;48.048;11.706;2022-11-02T10:28:55;2.50;;;1.10;;
5209;SDS011;2624;48.048;11.706;2022-11-02T10:34:09;3.73;;;0.83;;
5209;SDS011;2624;48.048;11.706;2022-11-02T10:39:21;1.83;;;0.80;;
5209;SDS011;2624;48.048;11.706;2022-11-02T10:44:32;2.10;;;1.10;;
5209;SDS011;2624;48.048;11.706;2022-11-02T10:49:54;0.73;;;0.73;;
5209;SDS011;2624;48.048;11.706;2022-11-02T10:55:12;3.03;;;1.20;;
5209;SDS011;2624;48.048;11.706;2022-11-02T11:00:24;1.43;;;0.63;;
5209;SDS011;2624;48.048;11.706;2022-11-02T11:05:31;4.60;;;0.80;;
5209;SDS011;2624;48.048;11.706;2022-11-02T11:10:37;1.60;;;1.07;;
5209;SDS011;2624;48.048;11.706;2022-11-02T11:15:43;0.73;;;0.73;;
5209;SDS011;2624;48.048;11.706;2022-11-02T11:20:52;2.10;;;0.90;;
5209;SDS011;2624;48.048;11.706;2022-11-02T11:25:57;1.47;;;1.10;;
5209;SDS011;2624;48.048;11.706;2022-11-02T11:31:02;3.30;;;0.90;;
5209;SDS011;2624;48.048;11.706;2022-11-02T11:36:07;6.17;;;1.70;;
5209;SDS011;2624;48.048;11.706;2022-11-02T11:41:11;1.67;;;0.70;;
5209;SDS011;2624;48.048;11.706;2022-11-02T11:46:13;2.40;;;0.70;;
5209;SDS011;2624;48.048;11.706;2022-11-02T11:51:23;2.20;;;1.10;;
5209;SDS011;2624;48.048;11.706;2022-11-02T11:56:32;0.63;;;0.53;;
5209;SDS011;2624;48.048;11.706;2022-11-02T12:01:36;10.80;;;0.90;;
5209;SDS011;2624;48.048;11.706;2022-11-02T12:06:40;5.30;;;1.17;;
5209;SDS011;2624;48.048;11.706;2022-11-02T12:11:54;21.10;;;1.20;;
5209;SDS011;2624;48.048;11.706;2022-11-02T12:17:16;3.80;;;0.80;;
5209;SDS011;2624;48.048;11.706;2022-11-02T12:22:40;5.03;;;0.60;;
5209;SDS011;2624;48.048;11.706;2022-11-02T12:27:50;2.77;;;0.90;;
5209;SDS011;2624;48.048;11.706;2022-11-02T12:33:01;3.40;;;0.70;;
5209;SDS011;2624;48.048;11.706;2022-11-02T12:38:12;0.80;;;0.50;;
5209;SDS011;2624;48.048;11.706;2022-11-02T12:43:33;4.60;;;1.00;;
5209;SDS011;2624;48.048;11.706;2022-11-02T12:48:41;1.77;;;0.50;;
5209;SDS011;2624;48.048;11.706;2022-11-02T12:53:56;2.87;;;0.70;;
5209;SDS011;2624;48.048;11.706;2022-11-02T12:59:00;1.43;;;0.50;;
5209;SDS011;2624;48.048;11.706;2022-11-02T13:04:07;3.80;;;1.00;;
5209;SDS011;2624;48.048;11.706;2022-11-02T13:09:14;1.33;;;0.80;;
5209;SDS011;2624;48.048;11.706;2022-11-02T13:14:22;6.10;;;0.80;;
5209;SDS011;2624;48.048;11.706;2022-11-02T13:19:29;1.90;;;1.27;;
5209;SDS011;2624;48.048;11.706;2022-11-02T13:24:36;0.90;;;0.90;;
5209;SDS011;2624;48.048;11.706;2022-11-02T13:29:45;7.80;;;1.30;;
5209;SDS011;2624;48.048;11.706;2022-11-02T13:34:49;2.93;;;1.10;;
5209;SDS011;2624;48.048;11.706;2022-11-02T13:39:54;1.63;;;0.97;;
5209;SDS011;2624;48.048;11.706;2022-11-02T13:45:11;3.27;;;1.00;;
5209;SDS011;2624;48.048;11.706;2022-11-02T13:50:32;4.37;;;1.10;;
5209;SDS011;2624;48.048;11.706;2022-11-02T13:55:40;1.33;;;0.90;;
5209;SDS011;2624;48.048;11.706;2022-11-02T14:00:46;0.70;;;0.70;;
5209;SDS011;2624;48.048;11.706;2022-11-02T14:05:48;1.53;;;0.80;;
5209;SDS011;2624;48.048;11.706;2022-11-02T14:11:04;1.00;;;0.90;;
5209;SDS011;2624;48.048;11.706;2022-11-02T14:16:39;0.63;;;0.63;;
5209;SDS011;2624;48.048;11.706;2022-11-02T14:21:44;7.97;;;1.13;;
5209;SDS011;2624;48.048;11.706;2022-11-02T14:32:46;2.87;;;1.23;;
5209;SDS011;2624;48.048;11.706;2022-11-02T14:38:06;0.87;;;0.70;;
5209;SDS011;2624;48.048;11.706;2022-11-02T14:48:56;5.50;;;1.83;;
5209;SDS011;2624;48.048;11.706;2022-11-02T14:54:00;6.90;;;3.23;;
5209;SDS011;2624;48.048;11.706;2022-11-02T14:59:04;9.27;;;4.90;;
5209;SDS011;2624;48.048;11.706;2022-11-02T15:04:16;2.63;;;1.00;;
5209;SDS011;2624;48.048;11.706;2022-11-02T15:14:55;3.83;;;0.80;;
5209;SDS011;2624;48.048;11.706;2022-11-02T15:25:27;3.40;;;0.80;;
5209;SDS011;2624;48.048;11.706;2022-11-02T15:30:32;2.70;;;0.70;;
5209;SDS011;2624;48.048;11.706;2022-11-02T15:35:44;0.57;;;0.57;;
5209;SDS011;2624;48.048;11.706;2022-11-02T15:40:49;1.83;;;0.90;;
5209;SDS011;2624;48.048;11.706;2022-11-02T15:45:57;1.80;;;0.73;;
5209;SDS011;2624;48.048;11.706;2022-11-02T15:51:07;2.80;;;1.17;;
5209;SDS011;2624;48.048;11.706;2022-11-02T15:56:24;3.37;;;0.60;;
5209;SDS011;2624;48.048;11.706;2022-11-02T16:01:36;1.80;;;0.97;;
5209;SDS011;2624;48.048;11.706;2022-11-02T16:06:42;2.20;;;1.10;;
5209;SDS011;2624;48.048;11.706;2022-11-02T16:11:44;1.13;;;0.73;;
5209;SDS011;2624;48.048;11.706;2022-11-02T16:17:01;0.90;;;0.80;;
5209;SDS011;2624;48.048;11.706;2022-11-02T16:22:07;2.20;;;1.00;;
5209;SDS011;2624;48.048;11.706;2022-11-02T16:27:09;1.87;;;0.80;;
5209;SDS011;2624;48.048;11.706;2022-11-02T16:32:12;0.80;;;0.80;;
5209;SDS011;2624;48.048;11.706;2022-11-02T16:37:16;0.60;;;0.60;;
5209;SDS011;2624;48.048;11.706;2022-11-02T16:42:21;1.40;;;0.80;;
5209;SDS011;2624;48.048;11.706;2022-11-02T16:47:28;4.83;;;1.87;;
5209;SDS011;2624;48.048;11.706;2022-11-02T16:52:39;7.20;;;2.30;;
5209;SDS011;2624;48.048;11.706;2022-11-02T16:57:42;6.80;;;3.40;;
5209;SDS011;2624;48.048;11.706;2022-11-02T17:02:45;11.10;;;5.30;;
5209;SDS011;2624;48.048;11.706;2022-11-02T17:07:52;10.40;;;6.00;;
5209;SDS011;2624;48.048;11.706;2022-11-02T17:12:58;6.47;;;3.90;;
5209;SDS011;2624;48.048;11.706;2022-11-02T17:18:14;1.83;;;1.53;;
5209;SDS011;2624;48.048;11.706;2022-11-02T17:23:30;3.07;;;0.90;;
5209;SDS011;2624;48.048;11.706;2022-11-02T17:28:40;3.23;;;1.27;;
5209;SDS011;2624;48.048;11.706;2022-11-02T17:33:43;2.80;;;0.80;;
5209;SDS011;2624;48.048;11.706;2022-11-02T17:38:47;5.57;;;1.07;;
5209;SDS011;2624;48.048;11.706;2022-11-02T17:43:49;3.87;;;1.10;;
5209;SDS011;2624;48.048;11.706;2022-11-02T17:48:51;7.70;;;1.70;;
5209;SDS011;2624;48.048;11.706;2022-11-02T17:53:55;1.73;;;1.37;;
5209;SDS011;2624;48.048;11.706;2022-11-02T17:58:56;4.87;;;3.00;;
5209;SDS011;2624;48.048;11.706;2022-11-02T18:03:58;8.30;;;3.77;;
5209;SDS011;2624;48.048;11.706;2022-11-02T18:09:01;9.00;;;5.63;;
5209;SDS011;2624;48.048;11.706;2022-11-02T18:14:17;18.27;;;8.43;;
5209;SDS011;2624;48.048;11.706;2022-11-02T18:19:19;13.93;;;6.87;;
5209;SDS011;2624;48.048;11.706;2022-11-02T18:24:22;6.23;;;4.10;;
5209;SDS011;2624;48.048;11.706;2022-11-02T18:29:24;8.53;;;4.60;;
5209;SDS011;2624;48.048;11.706;2022-11-02T18:34:26;5.80;;;3.20;;
5209;SDS011;2624;48.048;11.706;2022-11-02T18:39:29;2.57;;;2.37;;
5209;SDS011;2624;48.048;11.706;2022-11-02T18:44:31;15.33;;;2.80;;
5209;SDS011;2624;48.048;11.706;2022-11-02T18:49:33;4.50;;;3.57;;
5209;SDS011;2624;48.048;11.706;2022-11-02T18:54:36;8.90;;;5.60;;
5209;SDS011;2624;48.048;11.706;2022-11-02T18:59:38;9.63;;;4.87;;
5209;SDS011;2624;48.048;11.706;2022-11-02T19:04:40;4.47;;;2.97;;
5209;SDS011;2624;48.048;11.706;2022-11-02T19:09:43;2.50;;;2.33;;
5209;SDS011;2624;48.048;11.706;2022-11-02T19:14:46;2.43;;;2.23;;
5209;SDS011;2624;48.048;11.706;2022-11-02T19:19:50;3.73;;;2.07;;
5209;SDS011;2624;48.048;11.706;2022-11-02T19:24:54;3.23;;;2.60;;
5209;SDS011;2624;48.048;11.706;2022-11-02T19:29:55;3.10;;;2.07;;
5209;SDS011;2624;48.048;11.706;2022-11-02T19:34:57;7.80;;;2.10;;
5209;SDS011;2624;48.048;11.706;2022-11-02T19:40:00;3.30;;;2.40;;
5209;SDS011;2624;48.048;11.706;2022-11-02T19:45:02;4.33;;;2.30;;
5209;SDS011;2624;48.048;11.706;2022-11-02T19:50:05;7.17;;;2.87;;
5209;SDS011;2624;48.048;11.706;2022-11-02T19:55:08;2.00;;;1.90;;
5209;SDS011;2624;48.048;11.706;2022-11-02T20:00:11;1.70;;;1.60;;
5209;SDS011;2624;48.048;11.706;2022-11-02T20:05:14;2.40;;;2.10;;
5209;SDS011;2624;48.048;11.706;2022-11-02T20:10:17;3.80;;;1.67;;
5209;SDS011;2624;48.048;11.706;2022-11-02T20:15:19;1.63;;;1.53;;
5209;SDS011;2624;48.048;11.706;2022-11-02T20:20:21;10.57;;;1.40;;
5209;SDS011;2624;48.048;11.706;2022-11-02T20:25:25;1.30;;;1.30;;
5209;SDS011;2624;48.048;11.706;2022-11-02T20:30:27;1.57;;;1.47;;
5209;SDS011;2624;48.048;11.706;2022-11-02T20:35:29;2.03;;;1.40;;
5209;SDS011;2624;48.048;11.706;2022-11-02T20:40:33;5.50;;;1.40;;
5209;SDS011;2624;48.048;11.706;2022-11-02T20:45:34;4.80;;;1.53;;
5209;SDS011;2624;48.048;11.706;2022-11-02T20:50:36;2.93;;;1.00;;
5209;SDS011;2624;48.048;11.706;2022-11-02T20:55:39;1.80;;;1.67;;
5209;SDS011;2624;48.048;11.706;2022-11-02T21:00:43;2.90;;;1.67;;
5209;SDS011;2624;48.048;11.706;2022-11-02T21:05:45;5.57;;;2.03;;
5209;SDS011;2624;48.048;11.706;2022-11-02T21:10:56;3.27;;;2.10;;
5209;SDS011;2624;48.048;11.706;2022-11-02T21:16:01;5.83;;;2.20;;
5209;SDS011;2624;48.048;11.706;2022-11-02T21:21:03;2.30;;;2.20;;
5209;SDS011;2624;48.048;11.706;2022-11-02T21:26:08;5.80;;;2.67;;
5209;SDS011;2624;48.048;11.706;2022-11-02T21:31:12;1.87;;;1.73;;
5209;SDS011;2624;48.048;11.706;2022-11-02T21:36:16;1.30;;;1.30;;
5209;SDS011;2624;48.048;11.706;2022-11-02T21:41:20;1.93;;;1.70;;
5209;SDS011;2624;48.048;11.706;2022-11-02T21:46:25;2.47;;;1.67;;
5209;SDS011;2624;48.048;11.706;2022-11-02T21:51:27;5.40;;;2.00;;
5209;SDS011;2624;48.048;11.706;2022-11-02T21:56:30;2.83;;;1.73;;
5209;SDS011;2624;48.048;11.706;2022-11-02T22:01:34;8.73;;;2.20;;
5209;SDS011;2624;48.048;11.706;2022-11-02T22:06:45;4.87;;;1.80;;
5209;SDS011;2624;48.048;11.706;2022-11-02T22:11:49;2.40;;;1.93;;
5209;SDS011;2624;48.048;11.706;2022-11-02T22:17:12;6.43;;;2.03;;
5209;SDS011;2624;48.048;11.706;2022-11-02T22:22:14;9.73;;;1.83;;
5209;SDS011;2624;48.048;11.706;2022-11-02T22:27:17;1.50;;;1.50;;
5209;SDS011;2624;48.048;11.706;2022-11-02T22:32:19;1.50;;;1.33;;
5209;SDS011;2624;48.048;11.706;2022-11-02T22:37:21;5.67;;;2.23;;
5209;SDS011;2624;48.048;11.706;2022-11-02T22:42:41;2.03;;;1.90;;
5209;SDS011;2624;48.048;11.706;2022-11-02T22:47:43;5.70;;;1.70;;
5209;SDS011;2624;48.048;11.706;2022-11-02T22:52:45;1.70;;;1.60;;
5209;SDS011;2624;48.048;11.706;2022-11-02T22:57:48;1.60;;;1.60;;
5209;SDS011;2624;48.048;11.706;2022-11-02T23:02:53;6.57;;;2.57;;
5209;SDS011;2624;48.048;11.706;2022-11-02T23:07:55;4.93;;;2.67;;
5209;SDS011;2624;48.048;11.706;2022-11-02T23:12:58;3.33;;;2.60;;
5209;SDS011;2624;48.048;11.706;2022-11-02T23:18:00;2.60;;;2.37;;
5209;SDS011;2624;48.048;11.706;2022-11-02T23:23:02;3.80;;;2.27;;
5209;SDS011;2624;48.048;11.706;2022-11-02T23:28:22;11.17;;;2.00;;
5209;SDS011;2624;48.048;11.706;2022-11-02T23:33:42;1.93;;;1.60;;
5209;SDS011;2624;48.048;11.706;2022-11-02T23:38:44;3.37;;;2.10;;
5209;SDS011;2624;48.048;11.706;2022-11-02T23:44:06;1.80;;;1.50;;
5209;SDS011;2624;48.048;11.706;2022-11-02T23:49:14;1.50;;;1.50;;
5209;SDS011;2624;48.048;11.706;2022-11-02T23:54:17;1.70;;;1.50;;
5209;SDS011;2624;48.048;11.706;2022-11-02T23:59:38;2.83;;;1.70;;
